Aérodrome :
LOGIN :

S'inscrire | Disclaimer

   EN    FR    IT 

 










Légende :    VFR   VFR Marginal   IFR   IFR Intensif   IFR Très Intensif
Visi : 
Plafond : 
>= 8 km
>= 3000ft
5 à 8 km
1000 à 3000 ft
1500m à 5 km
500 à 1000 ft
800 à 1500m
200 à 500 ft
< 800m
< 200 ft
Symboles :   Orages  Brouillard  Fortes neiges  Fortes précipitations  Vent > 20 kt
SIGMETs :   Divers  Orages  Givrage  Turbulence  Onde Orograph.  Cendres Volcan.







- Altitude de l'aérodrome : 325 ft
- Code IATA : BES
- Voir les cartes d'approche


LFRB - Brest

DERNIER METAR :
  • 232130Z AUTO 22018G28KT 9999 OVC005 12/11 Q1019 TEMPO 2000 -DZRA VV///

METARs EXPIRÉS :
  • 232100Z AUTO 22018KT 9999 VV/// 12/11 Q1019 TEMPO 2000 -DZRA OVC002 BECMG 22015G25KT
  • 232030Z AUTO 22015KT 5000 BR OVC004 12/11 Q1020 TEMPO 2000 -DZRA BECMG 22015G25KT
  • 232000Z AUTO 22017KT 9999 OVC006 12/12 Q1020 TEMPO 2000 -DZRA OVC002 BECMG 22015G25KT
  • 231930Z AUTO 23015KT 9999 BKN007 OVC012 12/11 Q1020 TEMPO 2000 -DZRA OVC002 BECMG 22015G25KT
  • 231900Z AUTO 22016KT 9999 OVC005 12/12 Q1020 TEMPO 2000 -DZRA

TAF AMD TAF LFRB
Valide du 23 à 21h jusqu'au 25 à 00h UTC


232109Z 2321/2424 22015KT 7000 OVC006
TEMPO 2321/2413 2000 -DZRA VV///
BECMG 2321/2324 22015G25KT
BECMG 2403/2406 22020G35KT
TEMPO 2412/2416 22025G40KT 1000 RADZ VV///
BECMG 2416/2418 22015G25KT SCT015 SCT030
TEMPO 2418/2424 4000 SHRA BKN015
ATIS : +33 2 98 32 02 71
Pas de NOTAMs connus pour ce terrain.



MET'MAP, la Météo Aéronautique d'un coup d'oeil ! - Copyright ORBIFLY Décembre 2007 - Disclaimer

ORBIFLY MET'MAP TEAM :

Programmation & Développement : Alexandra Zaïnal
Conception & Développement : Baudouin d'Aumeries
Co-Programmation & Développement : Marc-Olivier Méhu
Soutien technique & logistique : Manuel Goepfert

Contact : metmap@orbifly.com




SOURCES & CREDITS :

   NOAA